Time;durP1;ratioP1;P1;durP2;ratioP2;P2;SDS_P1;SDS_P2;PMS_P1;PMS_P2;Temp;Humidity;BMP_temperature;BMP_pressure;BME280_temperature;BME280_humidity;BME280_pressure;Samples;Min_cycle;Max_cycle;Signal;HPM_P1;HPM_P2
2021/01/03 00:00:23;;;;;;;44.15;18.83;;;4.70;92.10;;;;;;5001370;28;20030;-78
2021/01/03 00:02:50;;;;;;;42.38;19.15;;;4.70;92.00;;;;;;4998031;28;20034;-77
2021/01/03 00:05:19;;;;;;;39.20;18.98;;;4.60;92.10;;;;;;4999987;28;20026;-77
2021/01/03 00:07:44;;;;;;;37.85;19.63;;;4.70;92.10;;;;;;4999364;28;20022;-78
2021/01/03 00:10:11;;;;;;;40.13;18.60;;;4.60;92.10;;;;;;4999329;28;20042;-77
2021/01/03 00:12:37;;;;;;;39.00;17.33;;;4.70;92.00;;;;;;4981384;28;20031;-78
2021/01/03 00:15:06;;;;;;;44.88;18.40;;;4.60;92.10;;;;;;4983777;28;20053;-77
2021/01/03 00:17:31;;;;;;;41.42;18.55;;;4.60;92.10;;;;;;4998274;28;20084;-78
2021/01/03 00:19:57;;;;;;;39.10;17.92;;;4.60;92.00;;;;;;4983449;28;20057;-77
2021/01/03 00:22:23;;;;;;;43.03;18.42;;;4.60;91.90;;;;;;4999984;28;20383;-77
2021/01/03 00:24:49;;;;;;;39.78;18.23;;;4.60;92.00;;;;;;4999191;28;20026;-77
2021/01/03 00:27:15;;;;;;;40.20;18.98;;;4.60;92.00;;;;;;5000542;28;20628;-78
2021/01/03 00:29:41;;;;;;;39.78;18.35;;;4.60;92.10;;;;;;4999961;28;20022;-78
2021/01/03 00:32:06;;;;;;;43.97;20.30;;;4.60;92.20;;;;;;4999839;28;20036;-78
2021/01/03 00:34:32;;;;;;;48.35;21.08;;;4.60;92.10;;;;;;4995824;28;20522;-78
2021/01/03 00:36:58;;;;;;;44.30;19.33;;;4.60;92.00;;;;;;4982421;28;20185;-76
2021/01/03 00:39:24;;;;;;;44.80;20.55;;;4.70;92.00;;;;;;4979193;28;20030;-76
2021/01/03 00:41:50;;;;;;;44.13;19.70;;;4.70;92.10;;;;;;4996980;28;20041;-76
2021/01/03 00:44:16;;;;;;;48.17;20.42;;;4.60;92.20;;;;;;4997144;28;20033;-77
2021/01/03 00:46:42;;;;;;;48.45;21.88;;;4.60;92.20;;;;;;4997611;28;20501;-77
2021/01/03 00:49:08;;;;;;;48.50;22.25;;;4.70;92.10;;;;;;4997016;28;20081;-77
2021/01/03 00:51:34;;;;;;;43.35;20.30;;;4.70;92.30;;;;;;4979808;28;20026;-77
2021/01/03 00:53:59;;;;;;;50.67;21.65;;;4.70;92.10;;;;;;4981009;28;20022;-77
2021/01/03 00:56:26;;;;;;;49.90;21.48;;;4.70;92.10;;;;;;4997658;28;20116;-77
2021/01/03 00:58:52;;;;;;;52.08;22.35;;;4.70;92.20;;;;;;4978868;28;20134;-77
2021/01/03 01:01:19;;;;;;;51.92;22.55;;;4.70;92.20;;;;;;4980778;28;20034;-77
2021/01/03 01:03:44;;;;;;;48.30;21.17;;;4.70;92.20;;;;;;4995030;28;20031;-77
2021/01/03 01:06:10;;;;;;;47.33;21.15;;;4.70;92.30;;;;;;4997156;28;20383;-77
2021/01/03 01:08:36;;;;;;;48.78;21.70;;;4.70;92.10;;;;;;4995647;28;20034;-77
2021/01/03 01:11:05;;;;;;;53.78;22.90;;;4.70;92.10;;;;;;4997376;28;20033;-77
2021/01/03 01:13:31;;;;;;;50.22;21.67;;;4.70;92.10;;;;;;4995743;28;20613;-77
2021/01/03 01:15:56;;;;;;;54.20;21.65;;;4.70;92.30;;;;;;4996952;28;20034;-77
2021/01/03 01:18:25;;;;;;;53.80;23.02;;;4.70;92.20;;;;;;4996944;28;20457;-77
2021/01/03 01:20:50;;;;;;;53.72;22.17;;;4.70;92.20;;;;;;4977858;28;20034;-77
2021/01/03 01:23:16;;;;;;;49.28;20.60;;;4.70;92.10;;;;;;4997631;28;20120;-76
2021/01/03 01:25:42;;;;;;;53.17;22.55;;;4.70;92.20;;;;;;4996358;28;20026;-76
2021/01/03 01:28:08;;;;;;;53.17;21.90;;;4.70;92.20;;;;;;4998608;28;20029;-76
2021/01/03 01:30:34;;;;;;;52.80;22.40;;;4.70;92.30;;;;;;4996645;28;20034;-77
2021/01/03 01:33:00;;;;;;;53.50;22.58;;;4.70;92.10;;;;;;4997060;28;20026;-77
2021/01/03 01:35:32;;;;;;;53.35;22.48;;;4.70;92.00;;;;;;4978913;28;20509;-77
2021/01/03 01:37:59;;;;;;;48.33;21.27;;;4.70;92.00;;;;;;4998332;28;20069;-78
2021/01/03 01:40:29;;;;;;;50.40;22.13;;;4.70;92.00;;;;;;4997873;28;20030;-78
2021/01/03 01:42:55;;;;;;;56.23;21.87;;;4.70;91.90;;;;;;4988533;28;20448;-77
2021/01/03 01:45:29;;;;;;;48.22;20.92;;;4.70;91.90;;;;;;4994439;28;20293;-76
2021/01/03 01:48:03;;;;;;;44.38;20.50;;;4.70;91.90;;;;;;4996795;28;20061;-76
2021/01/03 01:50:50;;;;;;;49.50;21.23;;;4.60;92.00;;;;;;4993685;28;20402;-77
2021/01/03 01:53:47;;;;;;;1038.95;576.47;;;4.70;92.40;;;;;;4993935;28;20105;-77
2021/01/03 01:56:38;;;;;;;241.10;108.47;;;4.80;92.60;;;;;;4996493;28;20026;-77
2021/01/03 01:59:11;;;;;;;311.40;152.35;;;4.80;91.90;;;;;;4980037;28;20506;-76
2021/01/03 02:01:45;;;;;;;186.20;116.22;;;4.80;92.00;;;;;;4993961;28;20030;-77
2021/01/03 02:04:29;;;;;;;52.85;22.65;;;4.80;92.10;;;;;;4979428;28;20113;-77
2021/01/03 02:07:06;;;;;;;46.90;21.38;;;4.80;92.80;;;;;;4997445;28;20030;-77
2021/01/03 02:09:50;;;;;;;47.83;20.98;;;4.70;92.30;;;;;;4992982;28;20509;-77
2021/01/03 02:12:32;;;;;;;50.63;21.63;;;4.70;92.00;;;;;;4993767;28;20382;-77
2021/01/03 02:14:58;;;;;;;52.70;23.05;;;4.70;92.00;;;;;;4977845;28;20084;-77
2021/01/03 02:19:51;;;;;;;49.72;21.88;;;4.60;92.10;;;;;;5040800;22;20121;-73
2021/01/03 02:22:38;;;;;;;51.05;22.75;;;4.60;92.20;;;;;;5026475;28;20026;-73
2021/01/03 02:25:06;;;;;;;54.58;23.15;;;4.50;92.20;;;;;;5027918;28;20429;-72
2021/01/03 02:27:47;;;;;;;51.90;20.90;;;4.60;92.30;;;;;;5028581;28;20029;-72
2021/01/03 02:30:14;;;;;;;51.50;21.95;;;4.50;92.30;;;;;;5031485;28;20030;-73
2021/01/03 02:32:48;;;;;;;51.03;21.58;;;4.50;92.40;;;;;;5030992;28;20026;-73
2021/01/03 02:35:14;;;;;;;57.60;24.02;;;4.50;92.40;;;;;;5013103;28;20064;-73
2021/01/03 02:37:43;;;;;;;50.42;21.67;;;4.50;92.30;;;;;;5031237;28;20028;-73
2021/01/03 02:40:16;;;;;;;49.35;21.55;;;4.50;92.40;;;;;;5031168;28;20022;-73
2021/01/03 02:42:42;;;;;;;57.63;23.30;;;4.40;92.40;;;;;;5032238;28;20392;-74
2021/01/03 02:45:24;;;;;;;54.90;22.35;;;4.40;92.40;;;;;;5042922;28;20124;-73
2021/01/03 02:47:50;;;;;;;51.63;21.90;;;4.30;92.60;;;;;;5032623;28;20048;-72
2021/01/03 02:50:21;;;;;;;55.60;23.85;;;4.30;92.60;;;;;;5032635;28;20018;-72
2021/01/03 02:52:47;;;;;;;58.30;22.73;;;4.30;92.60;;;;;;5046326;28;20025;-73
2021/01/03 02:55:14;;;;;;;52.90;22.33;;;4.30;92.70;;;;;;5048024;28;20033;-73
2021/01/03 02:57:40;;;;;;;58.35;21.90;;;4.20;92.70;;;;;;5046952;28;20061;-72
2021/01/03 03:00:26;;;;;;;50.35;23.27;;;4.20;92.70;;;;;;5042343;28;20064;-73
2021/01/03 03:02:52;;;;;;;49.90;21.65;;;4.20;92.70;;;;;;5029729;28;20044;-73
2021/01/03 03:05:20;;;;;;;57.22;24.17;;;4.20;92.80;;;;;;5030676;28;20029;-72
2021/01/03 03:07:46;;;;;;;50.53;21.98;;;4.20;92.80;;;;;;5031687;28;20029;-73
2021/01/03 03:10:12;;;;;;;59.05;22.90;;;4.20;92.90;;;;;;5029554;28;20033;-73
2021/01/03 03:12:38;;;;;;;57.15;21.98;;;4.20;92.80;;;;;;5032555;28;20536;-72
2021/01/03 03:15:06;;;;;;;53.78;22.50;;;4.20;92.90;;;;;;5030485;28;20124;-73
2021/01/03 03:17:32;;;;;;;58.15;22.45;;;4.20;92.80;;;;;;5041040;28;20167;-73
2021/01/03 03:19:58;;;;;;;54.75;22.42;;;4.30;92.80;;;;;;5028902;28;20528;-73
2021/01/03 03:22:23;;;;;;;53.15;20.50;;;4.30;92.80;;;;;;5032237;28;20088;-73
2021/01/03 03:24:49;;;;;;;55.15;21.50;;;4.30;92.80;;;;;;5030990;28;20116;-73
2021/01/03 03:27:15;;;;;;;56.05;22.13;;;4.30;92.90;;;;;;5030735;28;20028;-73
2021/01/03 03:29:40;;;;;;;53.35;22.45;;;4.30;92.80;;;;;;5013489;28;20025;-72
2021/01/03 03:32:06;;;;;;;55.47;22.15;;;4.30;92.90;;;;;;5029843;28;20045;-75
2021/01/03 03:34:32;;;;;;;52.08;21.23;;;4.30;92.70;;;;;;5029748;28;20053;-73
2021/01/03 03:36:58;;;;;;;55.30;21.85;;;4.30;92.70;;;;;;5029139;28;20141;-72
2021/01/03 03:39:25;;;;;;;52.67;20.98;;;4.30;92.80;;;;;;5028776;28;20411;-73
2021/01/03 03:41:57;;;;;;;52.28;20.90;;;4.30;92.80;;;;;;5029095;28;20629;-72
2021/01/03 03:44:23;;;;;;;49.47;20.30;;;4.20;92.90;;;;;;5046743;28;20037;-72
2021/01/03 03:46:54;;;;;;;52.45;20.02;;;4.20;92.90;;;;;;5030439;28;20034;-72
2021/01/03 03:49:20;;;;;;;54.28;21.10;;;4.20;92.90;;;;;;5029859;28;20679;-73
2021/01/03 03:51:46;;;;;;;52.38;20.77;;;4.20;92.90;;;;;;5044131;28;20037;-73
2021/01/03 03:54:12;;;;;;;50.78;21.38;;;4.20;92.90;;;;;;5030429;28;20036;-74
2021/01/03 03:56:38;;;;;;;47.63;21.63;;;4.20;92.90;;;;;;5023978;28;20022;-75
2021/01/03 03:59:03;;;;;;;46.47;19.67;;;4.20;92.80;;;;;;5028338;28;20028;-73
2021/01/03 04:01:39;;;;;;;52.35;20.23;;;4.20;92.90;;;;;;5029329;28;20037;-72
2021/01/03 04:04:04;;;;;;;49.65;20.33;;;4.20;92.80;;;;;;5029647;28;20481;-73
2021/01/03 04:06:30;;;;;;;44.00;19.13;;;4.20;92.80;;;;;;5030068;28;20025;-72
2021/01/03 04:08:56;;;;;;;50.30;19.90;;;4.30;92.80;;;;;;5029405;28;20037;-74
2021/01/03 04:11:22;;;;;;;51.80;20.55;;;4.30;92.80;;;;;;5023956;28;20038;-74
2021/01/03 04:13:48;;;;;;;46.95;19.73;;;4.30;92.80;;;;;;5030104;28;20404;-73
2021/01/03 04:16:13;;;;;;;49.25;19.65;;;4.40;92.60;;;;;;5029681;28;20034;-73
2021/01/03 04:18:39;;;;;;;44.30;18.65;;;4.30;92.70;;;;;;5029442;28;20516;-72
2021/01/03 04:21:06;;;;;;;46.05;18.55;;;4.30;92.70;;;;;;5045664;28;20476;-73
2021/01/03 04:23:31;;;;;;;44.00;17.85;;;4.30;92.70;;;;;;5029770;28;20056;-72
2021/01/03 04:25:57;;;;;;;42.10;17.65;;;4.30;92.60;;;;;;5028561;28;20136;-73
2021/01/03 04:28:23;;;;;;;46.97;18.58;;;4.30;92.70;;;;;;5012111;28;20501;-72
2021/01/03 04:30:49;;;;;;;43.63;18.13;;;4.30;92.50;;;;;;5028774;28;20033;-73
2021/01/03 04:33:14;;;;;;;46.33;18.45;;;4.30;92.40;;;;;;5029752;28;20025;-74
2021/01/03 04:35:40;;;;;;;40.42;17.23;;;4.30;92.40;;;;;;5023277;28;20032;-72
2021/01/03 04:38:05;;;;;;;41.28;17.20;;;4.30;92.40;;;;;;5030930;28;20021;-73
2021/01/03 04:40:32;;;;;;;38.40;16.13;;;4.20;92.40;;;;;;5030228;28;20039;-73
2021/01/03 04:43:00;;;;;;;38.97;16.50;;;4.20;92.50;;;;;;5027662;28;20036;-72
2021/01/03 04:45:45;;;;;;;38.83;16.02;;;4.20;92.60;;;;;;5029662;28;20057;-73
2021/01/03 04:48:28;;;;;;;38.00;16.75;;;4.20;92.50;;;;;;5029927;28;20568;-72
2021/01/03 04:51:27;;;;;;;42.25;17.10;;;4.20;92.50;;;;;;5044548;28;20036;-73
2021/01/03 04:54:03;;;;;;;39.63;16.00;;;4.20;92.40;;;;;;5024944;28;20099;-73
2021/01/03 04:56:40;;;;;;;39.75;15.82;;;4.20;92.50;;;;;;5029057;28;20021;-73
2021/01/03 04:59:21;;;;;;;38.83;15.82;;;4.30;92.50;;;;;;5028915;28;20029;-73
2021/01/03 05:02:36;;;;;;;37.53;15.00;;;4.30;92.50;;;;;;5025571;28;20038;-73
2021/01/03 05:05:35;;;;;;;37.20;15.43;;;4.30;92.50;;;;;;5007078;28;20437;-73
2021/01/03 05:08:17;;;;;;;35.25;14.57;;;4.30;92.50;;;;;;5029550;28;20022;-73
2021/01/03 05:10:44;;;;;;;37.92;14.95;;;4.30;92.40;;;;;;5028592;28;20109;-73
2021/01/03 05:13:33;;;;;;;38.17;16.25;;;4.30;92.50;;;;;;5010705;28;20025;-73
2021/01/03 05:16:01;;;;;;;38.92;14.77;;;4.30;92.50;;;;;;5011136;28;20036;-72
2021/01/03 05:18:27;;;;;;;33.00;14.40;;;4.30;92.30;;;;;;5011389;28;20324;-72
2021/01/03 05:20:55;;;;;;;37.25;14.73;;;4.30;92.30;;;;;;5029287;28;20504;-72
2021/01/03 05:23:24;;;;;;;30.42;13.65;;;4.30;92.30;;;;;;5028937;28;20338;-72
2021/01/03 05:25:52;;;;;;;32.28;14.57;;;4.30;92.00;;;;;;5038973;28;20038;-72
2021/01/03 05:28:23;;;;;;;29.92;12.80;;;4.30;91.80;;;;;;5028090;28;20030;-72
2021/01/03 05:30:49;;;;;;;28.33;12.88;;;4.20;91.80;;;;;;5025893;28;20503;-72
2021/01/03 05:33:26;;;;;;;26.75;12.57;;;4.20;91.90;;;;;;5028400;28;20135;-72
2021/01/03 05:35:52;;;;;;;29.63;12.23;;;4.20;91.60;;;;;;5028629;28;20468;-73
2021/01/03 05:38:36;;;;;;;26.00;12.57;;;4.20;91.70;;;;;;5028058;28;20024;-72
2021/01/03 05:41:17;;;;;;;28.20;12.65;;;4.30;91.80;;;;;;5027060;28;20048;-73
2021/01/03 05:43:48;;;;;;;;;;;4.20;91.70;;;;;;5028771;28;20555;-74
2021/01/03 05:46:13;;;;;;;30.67;13.18;;;4.20;91.90;;;;;;5043642;28;20009;-73
2021/01/03 05:48:43;;;;;;;26.55;12.13;;;4.20;91.90;;;;;;5027566;28;20068;-73
2021/01/03 05:51:29;;;;;;;28.70;13.38;;;4.30;91.90;;;;;;5026329;28;20056;-72
2021/01/03 05:54:05;;;;;;;30.02;13.02;;;4.30;91.90;;;;;;5029323;28;20036;-72
2021/01/03 05:56:34;;;;;;;27.63;12.23;;;4.20;92.00;;;;;;5027221;28;20477;-72
2021/01/03 05:59:00;;;;;;;24.95;13.02;;;4.30;92.00;;;;;;5026425;28;20029;-73
2021/01/03 06:01:30;;;;;;;24.92;11.63;;;4.20;92.00;;;;;;5027198;28;20492;-72
2021/01/03 06:04:02;;;;;;;23.70;12.70;;;4.30;92.10;;;;;;5028228;28;20038;-72
2021/01/03 06:06:40;;;;;;;25.55;12.80;;;4.30;92.00;;;;;;5026770;28;20124;-72
2021/01/03 06:09:08;;;;;;;26.05;12.40;;;4.30;92.00;;;;;;5027869;28;20433;-72
2021/01/03 06:11:34;;;;;;;25.55;12.27;;;4.30;92.10;;;;;;5027604;28;20029;-73
2021/01/03 06:13:59;;;;;;;26.08;12.27;;;4.40;91.80;;;;;;5011706;28;20026;-72
2021/01/03 06:16:29;;;;;;;25.77;11.77;;;4.30;91.90;;;;;;5027956;28;20026;-72
2021/01/03 06:19:10;;;;;;;23.70;12.02;;;4.30;91.90;;;;;;5042391;28;20036;-72
2021/01/03 06:21:42;;;;;;;23.50;10.93;;;4.40;92.00;;;;;;5028969;28;20032;-72
2021/01/03 06:24:23;;;;;;;25.85;12.02;;;4.30;92.00;;;;;;5039661;28;20017;-72
2021/01/03 06:26:51;;;;;;;23.75;11.32;;;4.30;92.00;;;;;;5027853;28;20017;-73
2021/01/03 06:29:37;;;;;;;21.55;10.88;;;4.30;92.10;;;;;;5026773;28;20583;-72
2021/01/03 06:32:25;;;;;;;22.95;10.73;;;4.30;92.00;;;;;;5027313;28;20095;-72
2021/01/03 06:35:29;;;;;;;22.17;11.23;;;4.30;91.90;;;;;;5025252;28;20431;-72
2021/01/03 06:37:59;;;;;;;21.73;9.95;;;4.30;91.80;;;;;;5039200;28;20027;-73
2021/01/03 06:40:35;;;;;;;22.20;11.77;;;4.30;91.80;;;;;;5043577;28;20095;-73
2021/01/03 06:43:30;;;;;;;23.42;11.15;;;4.30;91.90;;;;;;5044364;28;20357;-73
2021/01/03 06:46:26;;;;;;;23.55;10.85;;;4.30;91.70;;;;;;5028410;28;20032;-73
2021/01/03 06:49:17;;;;;;;22.40;10.68;;;4.20;91.60;;;;;;5027384;28;20017;-72
2021/01/03 06:52:15;;;;;;;21.00;10.53;;;4.30;91.50;;;;;;5020832;28;20368;-73
2021/01/03 06:54:41;;;;;;;23.23;11.60;;;4.30;91.50;;;;;;5037163;28;20025;-72
2021/01/03 06:57:29;;;;;;;25.58;10.77;;;4.30;91.40;;;;;;5028066;28;20492;-72
2021/01/03 07:00:14;;;;;;;21.95;11.07;;;4.20;91.50;;;;;;5028696;28;20022;-71
2021/01/03 07:02:48;;;;;;;22.63;10.82;;;4.20;91.50;;;;;;5026377;28;20025;-72
2021/01/03 07:05:14;;;;;;;22.75;10.70;;;4.20;91.60;;;;;;5009582;28;20025;-72
2021/01/03 07:07:44;;;;;;;24.73;11.05;;;4.20;91.70;;;;;;5028943;28;20460;-72
2021/01/03 07:10:17;;;;;;;22.75;10.68;;;4.20;91.60;;;;;;5028120;28;20445;-72
2021/01/03 07:12:46;;;;;;;27.52;12.70;;;4.20;91.70;;;;;;5015140;28;20021;-72
2021/01/03 07:15:26;;;;;;;26.40;11.13;;;4.20;91.60;;;;;;5029605;28;20056;-72
2021/01/03 07:17:55;;;;;;;21.48;11.60;;;4.20;91.60;;;;;;5030434;28;20026;-73
2021/01/03 07:20:50;;;;;;;26.80;13.15;;;4.20;91.50;;;;;;5029301;28;20029;-72
2021/01/03 07:23:39;;;;;;;25.60;12.07;;;4.20;91.60;;;;;;5026389;28;20045;-72
2021/01/03 07:26:28;;;;;;;23.23;11.18;;;4.20;91.60;;;;;;5030143;28;20021;-73
2021/01/03 07:29:00;;;;;;;22.17;11.00;;;4.20;91.60;;;;;;5039441;28;20026;-73
2021/01/03 07:31:41;;;;;;;23.63;11.10;;;4.20;91.60;;;;;;5029605;28;20026;-72
2021/01/03 07:34:30;;;;;;;22.83;10.82;;;4.20;91.40;;;;;;5030549;28;20022;-72
2021/01/03 07:37:13;;;;;;;22.50;10.25;;;4.20;91.20;;;;;;5041706;28;20551;-72
2021/01/03 07:40:16;;;;;;;21.85;10.70;;;4.20;91.10;;;;;;5023188;28;20025;-73
2021/01/03 07:42:44;;;;;;;23.23;10.98;;;4.20;91.30;;;;;;4983924;28;20106;-73
2021/01/03 07:45:13;;;;;;;20.80;10.52;;;4.20;91.10;;;;;;5022051;28;20033;-73
2021/01/03 07:47:41;;;;;;;20.50;10.88;;;4.20;90.70;;;;;;5030053;28;20064;-73
2021/01/03 07:50:31;;;;;;;22.42;10.90;;;4.20;90.80;;;;;;5030150;28;20021;-73
2021/01/03 07:53:17;;;;;;;18.73;9.00;;;4.20;90.70;;;;;;5047133;28;20036;-73
2021/01/03 07:55:43;;;;;;;21.40;11.00;;;4.20;90.60;;;;;;5028826;28;20029;-73
2021/01/03 07:58:17;;;;;;;18.38;9.50;;;4.10;90.50;;;;;;5029900;28;20033;-73
2021/01/03 08:00:45;;;;;;;20.42;9.35;;;4.20;90.40;;;;;;5028608;28;20033;-72
2021/01/03 08:03:15;;;;;;;17.45;8.90;;;4.20;90.30;;;;;;5029373;28;20160;-73
2021/01/03 08:05:43;;;;;;;16.08;8.68;;;4.20;90.20;;;;;;5030137;28;20534;-73
2021/01/03 08:08:15;;;;;;;20.20;9.60;;;4.20;90.10;;;;;;5029381;28;20029;-73
2021/01/03 08:10:42;;;;;;;18.63;8.82;;;4.10;89.70;;;;;;5029815;28;20396;-73
2021/01/03 08:13:20;;;;;;;18.52;9.43;;;4.10;89.70;;;;;;5039679;28;20606;-73
2021/01/03 08:15:46;;;;;;;17.88;8.98;;;4.10;89.60;;;;;;5028586;28;20441;-73
2021/01/03 08:18:19;;;;;;;15.65;8.27;;;4.10;89.60;;;;;;5028124;28;20029;-73
2021/01/03 08:20:46;;;;;;;15.77;8.77;;;4.10;89.40;;;;;;5028064;28;20033;-73
2021/01/03 08:23:17;;;;;;;22.27;9.30;;;4.10;89.40;;;;;;5028619;28;20112;-73
2021/01/03 08:25:43;;;;;;;18.42;8.90;;;4.10;89.80;;;;;;5012875;28;20036;-73
2021/01/03 08:28:20;;;;;;;18.15;8.95;;;4.10;89.60;;;;;;5028361;28;20033;-73
2021/01/03 08:30:48;;;;;;;19.08;8.77;;;4.10;90.00;;;;;;5028974;28;20481;-72
2021/01/03 08:33:22;;;;;;;17.10;9.50;;;4.10;90.00;;;;;;5012982;28;20021;-73
2021/01/03 08:35:48;;;;;;;17.75;9.35;;;4.10;90.10;;;;;;5038874;28;21026;-73
2021/01/03 08:38:20;;;;;;;18.40;8.88;;;4.20;90.00;;;;;;5028919;28;20041;-73
2021/01/03 08:40:46;;;;;;;16.67;8.98;;;4.20;90.00;;;;;;5029367;28;20029;-73
2021/01/03 08:43:28;;;;;;;16.92;8.95;;;4.20;89.90;;;;;;5029413;28;20366;-72
2021/01/03 08:46:00;;;;;;;17.80;8.80;;;4.10;90.10;;;;;;5025149;28;20029;-72
2021/01/03 08:48:27;;;;;;;15.40;9.07;;;4.10;90.00;;;;;;5029928;28;20120;-72
2021/01/03 08:51:14;;;;;;;16.75;8.68;;;4.10;90.10;;;;;;5028896;28;20044;-73
2021/01/03 08:53:40;;;;;;;15.82;8.77;;;4.10;90.20;;;;;;5023244;28;20029;-72
2021/01/03 08:56:19;;;;;;;16.88;8.50;;;4.10;90.20;;;;;;5028650;28;20057;-73
2021/01/03 08:58:47;;;;;;;15.15;8.05;;;4.20;90.20;;;;;;5028667;28;20113;-73
2021/01/03 09:01:34;;;;;;;16.45;8.35;;;4.10;90.30;;;;;;5027892;28;20125;-72
2021/01/03 09:04:12;;;;;;;15.02;7.65;;;4.10;90.20;;;;;;5007498;28;20048;-73
2021/01/03 09:06:38;;;;;;;14.80;7.63;;;4.10;90.20;;;;;;5026380;28;20021;-72
2021/01/03 09:09:15;;;;;;;17.13;8.27;;;4.20;90.20;;;;;;5027124;28;20043;-73
2021/01/03 09:12:07;;;;;;;15.50;8.10;;;4.10;90.00;;;;;;5037895;28;20440;-72
2021/01/03 09:14:36;;;;;;;13.73;7.28;;;4.10;90.00;;;;;;5024312;28;20528;-72
2021/01/03 09:17:07;;;;;;;14.48;7.60;;;4.10;90.00;;;;;;5026598;28;20413;-74
2021/01/03 09:19:54;;;;;;;14.43;7.70;;;4.10;90.20;;;;;;5037354;28;20033;-72
2021/01/03 09:22:39;;;;;;;14.10;7.47;;;4.10;90.20;;;;;;5025877;28;20036;-73
2021/01/03 09:25:14;;;;;;;13.77;7.60;;;4.10;90.20;;;;;;5044667;28;20033;-74
2021/01/03 09:27:41;;;;;;;11.13;6.22;;;4.20;90.20;;;;;;5028384;28;20030;-72
2021/01/03 09:30:24;;;;;;;14.05;6.80;;;4.20;90.00;;;;;;5028297;28;20030;-74
2021/01/03 09:33:09;;;;;;;11.45;6.70;;;4.30;89.90;;;;;;5012301;28;20077;-73
2021/01/03 09:35:59;;;;;;;9.55;6.30;;;4.30;89.60;;;;;;5025798;28;20041;-72
2021/01/03 09:38:34;;;;;;;10.35;5.70;;;4.30;89.30;;;;;;5046122;28;20083;-72
2021/01/03 09:41:24;;;;;;;10.13;6.07;;;4.30;89.10;;;;;;5011291;28;20025;-73
2021/01/03 09:44:09;;;;;;;11.18;5.30;;;4.40;88.00;;;;;;5030184;28;20021;-72
2021/01/03 09:46:44;;;;;;;8.55;4.68;;;4.30;87.90;;;;;;5028530;28;20037;-72
2021/01/03 09:49:37;;;;;;;8.90;5.35;;;4.30;87.90;;;;;;5028289;28;20346;-73
2021/01/03 09:52:32;;;;;;;7.57;4.30;;;4.40;87.40;;;;;;5038708;28;20030;-73
2021/01/03 09:55:16;;;;;;;7.63;4.20;;;4.50;86.80;;;;;;5011561;28;20034;-73
2021/01/03 09:57:53;;;;;;;7.63;4.30;;;4.50;86.10;;;;;;5027863;28;20607;-73
2021/01/03 10:00:22;;;;;;;7.60;3.78;;;4.50;86.50;;;;;;5010662;28;20026;-73
2021/01/03 10:02:48;;;;;;;7.07;4.28;;;4.50;86.20;;;;;;5008689;28;20033;-73
2021/01/03 10:05:24;;;;;;;6.50;3.33;;;4.60;85.10;;;;;;5011041;28;20462;-74
2021/01/03 10:08:18;;;;;;;7.03;3.72;;;4.60;85.60;;;;;;5038440;28;20025;-73
2021/01/03 10:10:56;;;;;;;6.72;3.78;;;4.70;84.60;;;;;;5025895;28;20033;-73
2021/01/03 10:13:25;;;;;;;6.72;3.85;;;4.70;85.30;;;;;;5033294;28;20509;-75
2021/01/03 10:15:51;;;;;;;7.72;4.38;;;4.70;85.60;;;;;;5044023;28;20037;-74
2021/01/03 10:18:30;;;;;;;8.82;4.72;;;4.80;85.90;;;;;;5026870;28;20034;-74
2021/01/03 10:20:56;;;;;;;8.70;5.20;;;4.80;86.30;;;;;;5027654;28;20109;-74
2021/01/03 10:23:41;;;;;;;8.35;5.05;;;4.80;86.40;;;;;;5011817;28;20029;-74
2021/01/03 10:26:25;;;;;;;10.43;5.15;;;4.80;87.10;;;;;;5027578;28;20038;-73
2021/01/03 10:28:51;;;;;;;9.45;5.25;;;4.90;87.20;;;;;;5021675;28;20040;-73
2021/01/03 10:31:17;;;;;;;9.75;5.35;;;4.90;87.30;;;;;;5029121;28;20025;-73
2021/01/03 10:33:44;;;;;;;8.43;5.30;;;5.00;87.60;;;;;;5010655;28;20072;-75
2021/01/03 10:36:24;;;;;;;7.95;4.78;;;5.00;87.60;;;;;;5028598;28;20104;-75
2021/01/03 10:38:50;;;;;;;9.32;5.22;;;5.00;87.00;;;;;;5035001;28;20041;-75
2021/01/03 10:41:19;;;;;;;10.85;5.38;;;5.10;87.20;;;;;;5028615;28;20025;-74
2021/01/03 10:43:49;;;;;;;8.15;4.97;;;5.10;86.70;;;;;;5010945;28;20017;-74
2021/01/03 10:46:18;;;;;;;8.00;4.90;;;5.10;87.10;;;;;;5012571;28;20025;-73
2021/01/03 10:48:43;;;;;;;5.35;3.60;;;5.10;86.80;;;;;;5041602;28;20021;-74
2021/01/03 10:51:09;;;;;;;5.82;2.95;;;5.10;85.50;;;;;;5014718;28;20044;-75
2021/01/03 10:53:35;;;;;;;4.03;2.50;;;5.00;84.20;;;;;;5030215;28;20025;-75
2021/01/03 10:56:03;;;;;;;3.88;2.80;;;5.10;84.00;;;;;;5047884;28;20037;-75
2021/01/03 10:58:28;;;;;;;3.90;2.22;;;5.00;84.20;;;;;;5047792;28;20029;-75
2021/01/03 11:00:54;;;;;;;4.72;2.20;;;5.00;83.70;;;;;;5013709;28;20040;-75
2021/01/03 11:03:20;;;;;;;4.88;2.30;;;5.10;83.30;;;;;;5014159;28;20240;-75
2021/01/03 11:05:46;;;;;;;3.33;2.08;;;5.10;83.20;;;;;;5030727;28;20029;-74
2021/01/03 11:08:11;;;;;;;4.95;2.22;;;5.10;82.90;;;;;;5031482;28;20029;-73
2021/01/03 11:10:37;;;;;;;4.43;1.95;;;5.10;81.90;;;;;;5031221;28;20037;-74
2021/01/03 11:13:03;;;;;;;4.05;1.80;;;5.00;81.90;;;;;;5033708;28;20029;-75
2021/01/03 11:15:28;;;;;;;4.70;1.42;;;5.00;82.30;;;;;;5033700;28;20040;-75
2021/01/03 11:17:54;;;;;;;2.95;1.80;;;5.10;81.80;;;;;;5030207;28;20120;-75
2021/01/03 11:20:21;;;;;;;3.58;1.98;;;5.20;83.80;;;;;;5030425;28;20064;-75
2021/01/03 11:22:47;;;;;;;2.97;1.83;;;5.20;82.40;;;;;;5031355;28;20116;-74
2021/01/03 11:25:14;;;;;;;2.72;1.65;;;5.20;82.30;;;;;;5030145;28;20552;-72
2021/01/03 11:27:40;;;;;;;2.92;1.90;;;5.20;81.20;;;;;;5030322;28;20021;-73
2021/01/03 11:30:07;;;;;;;2.95;1.73;;;5.20;81.10;;;;;;5025985;28;20394;-73
2021/01/03 11:32:33;;;;;;;2.95;1.77;;;5.20;81.90;;;;;;5031396;28;20021;-72
2021/01/03 11:34:59;;;;;;;3.30;2.15;;;5.10;81.90;;;;;;5040471;28;20032;-72
2021/01/03 11:37:27;;;;;;;3.17;1.95;;;5.10;81.60;;;;;;5030594;28;20033;-72
2021/01/03 11:39:53;;;;;;;3.65;1.70;;;5.10;81.30;;;;;;5030323;28;20064;-71
2021/01/03 11:42:26;;;;;;;3.97;1.52;;;5.10;82.00;;;;;;5028515;28;20049;-74
2021/01/03 11:44:52;;;;;;;3.70;1.92;;;5.00;81.40;;;;;;5013376;28;20029;-72
2021/01/03 11:47:18;;;;;;;3.42;1.80;;;5.00;81.30;;;;;;5014005;28;20040;-72
2021/01/03 11:49:45;;;;;;;2.78;1.77;;;5.10;81.30;;;;;;5032382;28;20061;-74
2021/01/03 11:52:11;;;;;;;2.90;1.70;;;5.10;81.70;;;;;;5030858;28;20029;-73
2021/01/03 11:54:38;;;;;;;2.85;1.65;;;5.00;81.70;;;;;;5028752;28;20028;-73
2021/01/03 11:57:05;;;;;;;2.75;1.73;;;5.00;81.40;;;;;;5030067;28;20017;-73
2021/01/03 11:59:31;;;;;;;3.20;1.80;;;5.00;81.60;;;;;;5030825;28;20029;-72
2021/01/03 12:02:08;;;;;;;3.83;1.70;;;5.00;81.90;;;;;;5045054;28;20053;-73
2021/01/03 12:04:36;;;;;;;3.05;2.03;;;5.10;82.10;;;;;;5012202;28;20029;-73
2021/01/03 12:07:05;;;;;;;2.65;1.35;;;5.10;82.50;;;;;;5029878;28;20120;-73
2021/01/03 12:09:31;;;;;;;5.88;1.85;;;5.10;82.50;;;;;;5029603;28;20381;-73
2021/01/03 12:12:02;;;;;;;4.22;1.80;;;5.10;83.00;;;;;;5045888;28;20118;-71
2021/01/03 12:14:29;;;;;;;3.00;1.85;;;5.00;83.70;;;;;;5030620;28;20338;-73
2021/01/03 12:17:00;;;;;;;3.10;1.85;;;5.00;83.80;;;;;;5029563;28;20400;-74
2021/01/03 12:19:27;;;;;;;3.97;2.08;;;5.10;83.70;;;;;;5029519;28;20432;-73
2021/01/03 12:21:59;;;;;;;4.38;2.28;;;5.00;83.90;;;;;;5029633;28;20075;-73
2021/01/03 12:24:25;;;;;;;4.90;2.20;;;5.00;84.50;;;;;;5028324;28;20026;-73
2021/01/03 12:26:51;;;;;;;5.80;2.50;;;5.00;84.80;;;;;;5029348;28;20032;-73
2021/01/03 12:29:19;;;;;;;3.97;2.47;;;4.90;85.20;;;;;;5029414;28;20394;-73
2021/01/03 12:31:49;;;;;;;4.70;2.15;;;5.00;85.60;;;;;;5028473;28;20033;-72
2021/01/03 12:34:16;;;;;;;7.05;2.85;;;4.90;85.90;;;;;;5030163;28;20031;-72
2021/01/03 12:36:42;;;;;;;8.15;2.90;;;5.00;86.60;;;;;;5029504;28;20025;-73
2021/01/03 12:39:09;;;;;;;7.15;2.90;;;4.90;86.80;;;;;;5013036;28;20025;-72
2021/01/03 12:41:36;;;;;;;5.97;2.60;;;4.90;86.90;;;;;;5010122;28;20080;-73
2021/01/03 12:44:03;;;;;;;6.07;2.72;;;4.90;86.30;;;;;;5027858;28;20424;-71
2021/01/03 12:46:36;;;;;;;5.32;2.00;;;4.80;85.90;;;;;;5028801;28;20056;-73
2021/01/03 12:49:03;;;;;;;5.38;2.25;;;4.90;84.40;;;;;;5029291;28;20068;-72
2021/01/03 12:51:29;;;;;;;4.00;1.48;;;4.90;83.90;;;;;;5011489;28;20205;-73
2021/01/03 12:53:55;;;;;;;5.00;2.13;;;4.90;82.70;;;;;;5028253;28;20036;-73
2021/01/03 12:56:22;;;;;;;3.15;1.65;;;4.90;82.70;;;;;;5029134;28;20056;-72
2021/01/03 12:58:52;;;;;;;4.40;1.55;;;4.90;83.10;;;;;;5027343;28;20029;-73
2021/01/03 13:01:23;;;;;;;3.25;1.60;;;4.90;82.90;;;;;;5028451;28;20029;-72
2021/01/03 13:03:48;;;;;;;4.85;1.85;;;4.90;82.50;;;;;;5030037;28;20033;-73
2021/01/03 13:06:14;;;;;;;126.45;49.90;;;4.90;82.90;;;;;;5031164;28;20048;-72
2021/01/03 13:08:40;;;;;;;223.20;95.50;;;5.00;83.00;;;;;;5022836;28;20022;-73